Time;durP1;ratioP1;P1;durP2;ratioP2;P2;SDS_P1;SDS_P2;PMS_P1;PMS_P2;Temp;Humidity;BMP_temperature;BMP_pressure;BME280_temperature;BME280_humidity;BME280_pressure;Samples;Min_cycle;Max_cycle;Signal;HPM_P1;HPM_P2
2024/02/06 10:46:01;;;;;;;7.40;3.40;;;;;;;7.32;100.00;98920.53;5109585;28;20556;-82
2024/02/06 10:48:29;;;;;;;6.77;3.37;;;;;;;7.98;100.00;98955.03;5091639;28;40379;-82
2024/02/06 10:50:58;;;;;;;4.97;2.60;;;;;;;8.30;97.38;98930.50;5091257;28;42198;-84
2024/02/06 10:53:26;;;;;;;4.90;2.97;;;;;;;8.92;93.91;98961.50;5108276;28;44265;-83
2024/02/06 10:56:01;;;;;;;4.20;2.73;;;;;;;9.14;90.43;98965.66;5108207;28;42133;-83
2024/02/06 10:58:37;;;;;;;4.63;3.10;;;;;;;9.35;87.69;98964.44;5091429;28;39565;-83
2024/02/06 11:01:09;;;;;;;3.23;2.60;;;;;;;9.48;86.38;98960.19;5108678;28;41957;-86
2024/02/06 11:04:01;;;;;;;3.17;2.40;;;;;;;9.45;84.93;98933.06;5090816;28;41625;-87
2024/02/06 11:06:36;;;;;;;4.27;2.40;;;;;;;9.70;83.88;98962.44;5108539;28;42243;-83
2024/02/06 11:09:11;;;;;;;5.13;2.80;;;;;;;9.65;83.47;98936.25;5091201;28;41683;-86
2024/02/06 11:11:40;;;;;;;4.07;2.53;;;;;;;9.72;82.59;98950.84;5108270;28;40899;-83
2024/02/06 11:14:12;;;;;;;5.87;2.50;;;;;;;9.64;81.72;98923.16;5090937;28;43100;-82
2024/02/06 11:16:48;;;;;;;4.37;2.50;;;;;;;9.97;81.26;98952.06;5106222;28;43085;-83
2024/02/06 11:19:25;;;;;;;5.77;2.73;;;;;;;10.00;79.77;98967.78;5091320;28;39024;-82
2024/02/06 11:22:10;;;;;;;3.40;2.13;;;;;;;10.07;79.93;98963.81;5107866;28;43113;-85
2024/02/06 11:24:39;;;;;;;4.63;2.57;;;;;;;10.04;79.71;98942.81;5073627;28;43349;-85
2024/02/06 11:27:07;;;;;;;3.30;2.00;;;;;;;10.13;78.98;98937.00;5091039;28;42216;-82
2024/02/06 11:32:23;;;;;;;3.27;2.20;;;;;;;10.00;78.04;98914.88;5089788;28;41213;-86
2024/02/06 11:34:54;;;;;;;2.57;2.03;;;;;;;10.44;78.08;98950.13;5090141;28;42071;-84
2024/02/06 11:37:27;;;;;;;5.77;2.60;;;;;;;10.50;76.79;98948.06;5107796;28;41068;-86
2024/02/06 11:40:05;;;;;;;5.13;2.47;;;;;;;10.44;76.03;98947.47;5107966;27;39428;-84
2024/02/06 11:42:34;;;;;;;3.43;2.07;;;;;;;10.48;76.37;98931.41;5092005;28;42845;-85
2024/02/06 11:45:20;;;;;;;4.17;2.27;;;;;;;10.48;75.97;98937.56;5095122;28;43026;-85
2024/02/06 11:47:54;;;;;;;4.20;2.07;;;;;;;10.60;75.66;98936.81;5096176;28;41401;-84
2024/02/06 11:50:36;;;;;;;4.43;2.50;;;;;;;10.43;75.28;98897.28;5113677;28;40651;-81
2024/02/06 11:53:14;;;;;;;6.07;2.50;;;;;;;10.70;74.79;98934.44;5130884;27;41833;-83
2024/02/06 11:55:42;;;;;;;4.10;2.50;;;;;;;10.77;74.74;98922.50;5089603;28;44434;-86
2024/02/06 11:58:13;;;;;;;4.43;2.23;;;;;;;10.77;74.33;98906.63;5094512;28;42350;-83
2024/02/06 12:00:41;;;;;;;2.90;2.17;;;;;;;10.90;73.75;98912.00;5076906;28;38951;-84
2024/02/06 12:03:13;;;;;;;3.13;2.20;;;;;;;11.02;72.57;98917.38;5076677;28;40367;-87
2024/02/06 12:05:41;;;;;;;3.73;2.33;;;;;;;11.05;72.57;98921.63;5110515;28;41292;-82
2024/02/06 12:08:10;;;;;;;3.47;2.37;;;;;;;11.09;72.13;98916.06;5076768;28;42813;-83
2024/02/06 12:10:38;;;;;;;4.93;2.43;;;;;;;11.03;72.34;98897.88;5093368;28;40582;-84
2024/02/06 12:13:11;;;;;;;4.13;2.43;;;;;;;11.09;72.21;98894.84;5095108;28;41434;-85
2024/02/06 12:15:40;;;;;;;3.67;2.00;;;;;;;11.08;71.19;98900.25;5059353;28;43566;-81
2024/02/06 12:18:12;;;;;;;4.03;2.27;;;;;;;11.21;71.96;98895.88;5076374;28;41088;-87
2024/02/06 12:20:41;;;;;;;3.37;1.90;;;;;;;11.24;70.94;98884.22;5093143;28;38926;-84
2024/02/06 12:23:11;;;;;;;3.03;2.10;;;;;;;11.39;70.04;98896.47;5093266;28;42747;-85
2024/02/06 12:25:41;;;;;;;2.90;2.20;;;;;;;11.39;69.14;98899.97;5109998;28;42831;-83
2024/02/06 12:28:15;;;;;;;3.87;2.13;;;;;;;11.45;69.70;98888.13;5093061;28;41334;-85
2024/02/06 12:30:44;;;;;;;6.47;2.77;;;;;;;11.46;69.60;98869.47;5077033;28;40588;-84
2024/02/06 12:33:16;;;;;;;4.90;2.23;;;;;;;11.52;68.89;98884.09;5093042;28;42044;-85
2024/02/06 12:35:44;;;;;;;3.77;2.10;;;;;;;11.59;68.22;98873.94;5076555;28;41824;-83
2024/02/06 12:38:17;;;;;;;2.50;1.83;;;;;;;11.59;67.63;98861.53;5075978;28;43733;-89
2024/02/06 12:40:46;;;;;;;3.37;2.40;;;;;;;11.59;67.82;98872.16;5076659;28;40304;-82
2024/02/06 12:43:14;;;;;;;2.87;2.00;;;;;;;11.74;67.64;98871.13;5075652;28;42212;-84
2024/02/06 12:45:44;;;;;;;3.60;2.37;;;;;;;11.88;67.59;98871.06;5092381;28;43045;-84
2024/02/06 12:48:13;;;;;;;4.87;2.67;;;;;;;11.97;66.84;98860.81;5092649;28;41055;-82
2024/02/06 12:50:42;;;;;;;4.90;2.63;;;;;;;12.09;66.80;98866.13;5109677;28;39103;-81
2024/02/06 12:53:10;;;;;;;2.47;2.00;;;;;;;11.96;65.57;98857.28;5075552;28;40718;-86
2024/02/06 12:55:41;;;;;;;3.90;2.47;;;;;;;11.99;65.45;98843.78;5075616;28;43227;-85
2024/02/06 12:58:17;;;;;;;4.63;2.23;;;;;;;11.92;65.00;98857.59;5075607;28;44413;-86
2024/02/06 13:00:44;;;;;;;3.50;2.23;;;;;;;12.01;65.73;98873.75;5075955;28;39887;-84
2024/02/06 13:03:17;;;;;;;4.67;2.30;;;;;;;11.96;65.38;98856.44;5109151;28;40942;-87
2024/02/06 13:05:46;;;;;;;7.67;3.00;;;;;;;12.07;65.94;98837.97;5075916;28;41901;-84
2024/02/06 13:08:14;;;;;;;3.23;2.13;;;;;;;12.28;65.66;98849.75;5091258;28;41660;-85
2024/02/06 13:10:42;;;;;;;4.10;2.40;;;;;;;12.27;64.55;98825.97;5075948;28;43289;-83
2024/02/06 13:13:30;;;;;;;3.80;2.27;;;;;;;12.71;63.68;98854.72;5093806;28;42007;-88
2024/02/06 13:16:05;;;;;;;3.07;2.27;;;;;;;12.76;62.44;98841.94;5075437;28;42487;-85
2024/02/06 13:21:17;;;;;;;4.07;2.40;;;;;;;13.42;60.34;98798.13;5075845;28;39656;-87
2024/02/06 13:23:45;;;;;;;3.50;2.20;;;;;;;14.11;57.86;98823.81;5074932;28;41137;-85
2024/02/06 13:26:13;;;;;;;3.70;2.50;;;;;;;14.56;57.38;98840.75;5075315;28;44572;-83
2024/02/06 13:28:45;;;;;;;4.83;2.57;;;;;;;14.61;56.08;98833.22;5091989;28;41445;-83
2024/02/06 13:31:12;;;;;;;3.87;2.40;;;;;;;14.52;55.64;98812.63;5109341;28;39600;-85
2024/02/06 13:33:43;;;;;;;3.30;2.33;;;;;;;14.45;55.32;98803.44;5092055;28;41220;-86
2024/02/06 13:36:10;;;;;;;3.20;2.47;;;;;;;14.09;55.56;98777.00;5074826;28;43065;-83
2024/02/06 13:38:41;;;;;;;5.60;2.10;;;;;;;14.21;55.94;98810.66;5092174;28;42623;-85
2024/02/06 13:41:13;;;;;;;4.63;2.07;;;;;;;13.95;56.47;98791.38;5075807;28;39148;-87
2024/02/06 13:43:44;;;;;;;4.77;2.50;;;;;;;13.90;56.94;98805.03;5074379;28;40944;-86
2024/02/06 13:46:12;;;;;;;4.40;2.00;;;;;;;13.76;57.37;98794.59;5090390;28;43056;-83
2024/02/06 13:48:40;;;;;;;4.87;2.00;;;;;;;13.93;56.91;98810.13;5074524;28;41300;-83
2024/02/06 13:51:09;;;;;;;3.30;2.13;;;;;;;13.93;56.78;98798.63;5126334;27;40094;-82
2024/02/06 13:53:36;;;;;;;3.47;2.27;;;;;;;13.99;56.69;98793.66;5074854;28;40740;-88
2024/02/06 13:56:05;;;;;;;3.23;2.30;;;;;;;14.17;56.52;98798.53;5091842;28;42942;-83
2024/02/06 13:58:35;;;;;;;4.00;1.97;;;;;;;14.22;56.64;98802.53;5091918;28;41202;-85
2024/02/06 14:01:03;;;;;;;7.80;2.60;;;;;;;14.10;56.09;98789.31;5058573;28;40816;-86
2024/02/06 14:03:31;;;;;;;6.03;2.47;;;;;;;14.10;56.55;98779.50;5092701;28;41765;-86
2024/02/06 14:05:59;;;;;;;2.70;1.87;;;;;;;14.06;55.99;98782.56;5074216;28;44797;-82
2024/02/06 14:08:30;;;;;;;3.73;2.30;;;;;;;13.97;55.71;98778.81;5074977;28;41028;-83
2024/02/06 14:10:58;;;;;;;6.20;2.57;;;;;;;13.88;56.40;98780.34;5074981;28;39998;-85
2024/02/06 14:13:25;;;;;;;6.23;2.00;;;;;;;13.84;56.47;98776.25;5091253;28;42130;-84
2024/02/06 14:15:56;;;;;;;3.47;2.30;;;;;;;13.95;56.73;98789.56;5091763;28;43225;-87
2024/02/06 14:18:24;;;;;;;5.17;2.47;;;;;;;13.73;56.77;98764.69;5108127;28;41423;-86
2024/02/06 14:23:38;;;;;;;5.00;2.50;;;;;;;13.48;57.10;98755.06;5073575;28;41129;-88
2024/02/06 14:26:06;;;;;;;2.83;2.53;;;;;;;13.57;57.38;98779.19;5074677;28;42786;-86
2024/02/06 14:28:34;;;;;;;3.27;2.13;;;;;;;13.49;57.77;98772.72;5074014;28;42537;-85
2024/02/06 14:31:02;;;;;;;3.63;2.57;;;;;;;13.35;57.84;98764.97;5125666;27;40586;-84
2024/02/06 14:33:32;;;;;;;4.57;2.27;;;;;;;13.26;57.78;98751.38;5108048;28;41432;-85
2024/02/06 14:36:00;;;;;;;3.53;1.87;;;;;;;13.16;58.24;98750.38;5123468;27;43767;-89
2024/02/06 14:38:27;;;;;;;4.80;2.30;;;;;;;13.02;58.72;98753.19;5073788;28;41301;-84
2024/02/06 14:40:57;;;;;;;6.97;1.90;;;;;;;12.75;59.46;98718.00;5074192;28;39428;-85
2024/02/06 14:43:24;;;;;;;4.63;2.37;;;;;;;12.72;59.39;98735.03;5073468;28;43334;-85
2024/02/06 14:46:01;;;;;;;3.03;1.90;;;;;;;12.28;60.24;98687.78;5073374;28;42176;-83
2024/02/06 14:51:10;;;;;;;3.20;1.80;;;;;;;12.21;61.20;98715.75;5072717;28;39895;-82
2024/02/06 14:53:41;;;;;;;3.57;1.97;;;;;;;12.10;62.08;98707.69;5073389;28;41634;-83
2024/02/06 14:56:10;;;;;;;3.07;1.70;;;;;;;12.00;62.61;98703.97;5072859;28;42703;-86
2024/02/06 14:58:37;;;;;;;4.17;2.30;;;;;;;11.87;62.55;98682.75;5073988;28;42396;-83
2024/02/06 15:01:05;;;;;;;5.37;1.93;;;;;;;12.00;62.75;98719.91;5073215;28;39851;-86
2024/02/06 15:03:36;;;;;;;3.40;2.13;;;;;;;11.73;63.09;98673.13;5073654;28;40985;-85
2024/02/06 15:06:06;;;;;;;3.40;2.00;;;;;;;11.67;63.01;98654.13;5088334;28;42911;-84
2024/02/06 15:08:33;;;;;;;2.13;1.83;;;;;;;11.79;63.25;98693.94;5056819;28;42026;-83
2024/02/06 15:11:01;;;;;;;5.17;2.13;;;;;;;11.71;63.49;98706.84;5089915;28;40417;-89
2024/02/06 15:13:31;;;;;;;3.97;1.90;;;;;;;11.55;63.87;98661.13;5073201;28;40756;-85
2024/02/06 15:15:59;;;;;;;4.67;2.03;;;;;;;11.49;63.88;98653.59;5072369;28;42572;-82
2024/02/06 15:18:28;;;;;;;3.73;2.30;;;;;;;11.55;64.42;98671.72;5072058;28;41055;-81
2024/02/06 15:20:55;;;;;;;3.70;2.27;;;;;;;11.53;64.66;98674.50;5089646;28;40243;-85
2024/02/06 15:23:23;;;;;;;6.00;1.70;;;;;;;11.28;64.70;98626.75;5090234;28;41533;-85
2024/02/06 15:25:51;;;;;;;2.30;1.90;;;;;;;11.32;64.96;98659.22;5088730;28;42719;-86
2024/02/06 15:28:19;;;;;;;2.33;2.13;;;;;;;11.31;65.51;98660.16;5072785;28;41505;-83
2024/02/06 15:30:48;;;;;;;3.27;2.10;;;;;;;10.99;65.75;98625.28;5073402;28;38520;-87
2024/02/06 15:33:16;;;;;;;5.83;2.30;;;;;;;11.12;65.81;98664.09;5075837;28;41456;-81
2024/02/06 15:35:43;;;;;;;2.47;1.83;;;;;;;11.15;66.92;98674.47;5074963;28;41389;-85
2024/02/06 15:38:11;;;;;;;2.53;1.90;;;;;;;10.82;66.87;98613.16;5075871;28;42779;-83
2024/02/06 15:40:39;;;;;;;2.90;1.90;;;;;;;11.02;66.55;98635.63;5075861;28;39029;-81
2024/02/06 15:43:07;;;;;;;3.87;1.83;;;;;;;11.03;66.92;98638.19;5075829;28;40375;-83
2024/02/06 15:45:36;;;;;;;4.30;2.03;;;;;;;11.15;67.25;98670.97;5060362;28;43007;-84
2024/02/06 15:48:06;;;;;;;5.43;2.23;;;;;;;11.02;67.12;98639.13;5075218;28;42305;-84
2024/02/06 15:50:34;;;;;;;4.37;1.73;;;;;;;11.10;67.08;98660.69;5075269;28;38943;-85
2024/02/06 15:53:01;;;;;;;6.80;2.20;;;;;;;10.91;67.37;98633.72;5075390;28;40913;-85
2024/02/06 15:55:28;;;;;;;3.57;2.10;;;;;;;10.96;67.38;98631.63;5075958;28;42022;-84
2024/02/06 15:57:55;;;;;;;4.43;1.70;;;;;;;10.97;67.62;98646.56;5075821;28;42402;-87
2024/02/06 16:00:23;;;;;;;3.63;1.90;;;;;;;10.96;67.77;98642.22;5076454;28;39521;-87
2024/02/06 16:02:51;;;;;;;7.23;1.87;;;;;;;10.71;68.04;98595.34;5092249;28;40872;-83
2024/02/06 16:05:22;;;;;;;4.27;1.73;;;;;;;10.91;67.77;98633.72;5093001;28;42844;-84
2024/02/06 16:07:50;;;;;;;3.47;1.80;;;;;;;10.80;67.94;98617.69;5075861;28;41198;-84
2024/02/06 16:10:17;;;;;;;3.43;1.70;;;;;;;10.83;68.09;98624.59;5075453;28;40430;-87
2024/02/06 16:12:45;;;;;;;2.70;1.90;;;;;;;10.69;68.14;98615.78;5076517;28;42534;-84
2024/02/06 16:15:13;;;;;;;3.17;1.60;;;;;;;10.84;68.44;98632.44;5076108;28;42028;-85
2024/02/06 16:17:40;;;;;;;3.63;1.90;;;;;;;10.55;68.29;98588.50;5076558;28;41978;-83
2024/02/06 16:20:11;;;;;;;7.97;1.77;;;;;;;10.86;68.45;98641.16;5092967;28;41605;-87
2024/02/06 16:22:40;;;;;;;3.63;1.50;;;;;;;10.77;68.57;98625.84;5076619;28;40703;-86
2024/02/06 16:25:09;;;;;;;5.40;2.03;;;;;;;10.74;68.59;98618.97;5075844;28;41829;-86
2024/02/06 16:27:39;;;;;;;3.47;1.50;;;;;;;10.62;68.87;98618.94;5074706;28;42201;-87
2024/02/06 16:30:08;;;;;;;2.47;1.77;;;;;;;10.51;69.16;98589.69;5076727;28;38661;-83
2024/02/06 16:32:36;;;;;;;3.43;1.80;;;;;;;10.76;69.03;98645.34;5076780;28;40761;-83
2024/02/06 16:35:04;;;;;;;3.70;2.27;;;;;;;10.35;68.89;98572.16;5076369;28;42798;-84
2024/02/06 16:37:32;;;;;;;4.90;1.50;;;;;;;10.67;68.82;98633.56;5075278;28;41390;-84
2024/02/06 16:40:01;;;;;;;3.53;2.00;;;;;;;10.68;69.40;98631.75;5075569;28;39170;-84
